sensor_id;sensor_type;location;lat;lon;timestamp;P1;durP1;ratioP1;P2;durP2;ratioP2
7080;SDS011;3582;51.506;11.948;2023-04-01T00:01:14;5.60;;;2.17;;
7080;SDS011;3582;51.506;11.948;2023-04-01T00:03:41;2.30;;;1.40;;
7080;SDS011;3582;51.506;11.948;2023-04-01T00:06:07;5.03;;;2.47;;
7080;SDS011;3582;51.506;11.948;2023-04-01T00:08:33;1.92;;;1.45;;
7080;SDS011;3582;51.506;11.948;2023-04-01T00:10:59;4.68;;;1.95;;
7080;SDS011;3582;51.506;11.948;2023-04-01T00:13:25;2.38;;;1.48;;
7080;SDS011;3582;51.506;11.948;2023-04-01T00:15:51;3.25;;;1.40;;
7080;SDS011;3582;51.506;11.948;2023-04-01T00:18:17;2.70;;;1.80;;
7080;SDS011;3582;51.506;11.948;2023-04-01T00:20:47;5.70;;;1.80;;
7080;SDS011;3582;51.506;11.948;2023-04-01T00:23:13;1.75;;;1.65;;
7080;SDS011;3582;51.506;11.948;2023-04-01T00:25:39;4.15;;;2.40;;
7080;SDS011;3582;51.506;11.948;2023-04-01T00:28:05;5.93;;;1.93;;
7080;SDS011;3582;51.506;11.948;2023-04-01T00:30:31;3.70;;;2.17;;
7080;SDS011;3582;51.506;11.948;2023-04-01T00:32:57;2.75;;;1.80;;
7080;SDS011;3582;51.506;11.948;2023-04-01T00:35:23;3.13;;;2.47;;
7080;SDS011;3582;51.506;11.948;2023-04-01T00:37:50;4.28;;;2.35;;
7080;SDS011;3582;51.506;11.948;2023-04-01T00:40:27;4.33;;;1.70;;
7080;SDS011;3582;51.506;11.948;2023-04-01T00:42:53;6.65;;;2.25;;
7080;SDS011;3582;51.506;11.948;2023-04-01T00:47:55;7.18;;;2.38;;
7080;SDS011;3582;51.506;11.948;2023-04-01T00:50:22;6.20;;;2.83;;
7080;SDS011;3582;51.506;11.948;2023-04-01T00:52:49;7.28;;;2.30;;
7080;SDS011;3582;51.506;11.948;2023-04-01T00:55:16;2.95;;;1.80;;
7080;SDS011;3582;51.506;11.948;2023-04-01T00:57:42;5.20;;;1.90;;
7080;SDS011;3582;51.506;11.948;2023-04-01T01:00:10;9.60;;;2.33;;
7080;SDS011;3582;51.506;11.948;2023-04-01T01:02:38;2.15;;;1.63;;
7080;SDS011;3582;51.506;11.948;2023-04-01T01:05:06;2.28;;;2.08;;
7080;SDS011;3582;51.506;11.948;2023-04-01T01:07:35;2.40;;;1.50;;
7080;SDS011;3582;51.506;11.948;2023-04-01T01:15:36;2.05;;;1.48;;
7080;SDS011;3582;51.506;11.948;2023-04-01T01:18:06;1.98;;;1.70;;
7080;SDS011;3582;51.506;11.948;2023-04-01T01:20:48;3.47;;;1.60;;
7080;SDS011;3582;51.506;11.948;2023-04-01T01:31:36;3.75;;;2.33;;
7080;SDS011;3582;51.506;11.948;2023-04-01T01:36:31;8.07;;;2.07;;
7080;SDS011;3582;51.506;11.948;2023-04-01T01:39:00;2.60;;;1.70;;
7080;SDS011;3582;51.506;11.948;2023-04-01T01:41:26;2.33;;;2.13;;
7080;SDS011;3582;51.506;11.948;2023-04-01T01:43:53;4.43;;;2.53;;
7080;SDS011;3582;51.506;11.948;2023-04-01T01:46:19;2.38;;;1.90;;
7080;SDS011;3582;51.506;11.948;2023-04-01T01:48:47;3.10;;;2.15;;
7080;SDS011;3582;51.506;11.948;2023-04-01T01:51:13;2.50;;;1.83;;
7080;SDS011;3582;51.506;11.948;2023-04-01T01:53:39;1.80;;;1.70;;
7080;SDS011;3582;51.506;11.948;2023-04-01T01:56:05;7.10;;;2.43;;
7080;SDS011;3582;51.506;11.948;2023-04-01T01:58:37;5.20;;;2.03;;
7080;SDS011;3582;51.506;11.948;2023-04-01T02:01:17;2.85;;;2.55;;
7080;SDS011;3582;51.506;11.948;2023-04-01T02:03:44;2.42;;;2.20;;
7080;SDS011;3582;51.506;11.948;2023-04-01T02:06:11;7.55;;;2.15;;
7080;SDS011;3582;51.506;11.948;2023-04-01T02:08:41;4.72;;;1.80;;
7080;SDS011;3582;51.506;11.948;2023-04-01T02:11:12;1.73;;;1.63;;
7080;SDS011;3582;51.506;11.948;2023-04-01T02:13:54;4.90;;;1.88;;
7080;SDS011;3582;51.506;11.948;2023-04-01T02:16:56;4.38;;;2.42;;
7080;SDS011;3582;51.506;11.948;2023-04-01T02:19:14;6.97;;;1.80;;
7080;SDS011;3582;51.506;11.948;2023-04-01T02:21:40;6.03;;;2.20;;
7080;SDS011;3582;51.506;11.948;2023-04-01T02:24:09;3.55;;;2.30;;
7080;SDS011;3582;51.506;11.948;2023-04-01T02:26:36;1.85;;;1.75;;
7080;SDS011;3582;51.506;11.948;2023-04-01T02:29:02;4.78;;;1.95;;
7080;SDS011;3582;51.506;11.948;2023-04-01T02:31:29;2.90;;;2.00;;
7080;SDS011;3582;51.506;11.948;2023-04-01T02:33:55;2.00;;;1.90;;
7080;SDS011;3582;51.506;11.948;2023-04-01T02:36:21;5.05;;;1.75;;
7080;SDS011;3582;51.506;11.948;2023-04-01T02:38:48;3.38;;;1.83;;
7080;SDS011;3582;51.506;11.948;2023-04-01T02:41:15;3.15;;;1.50;;
7080;SDS011;3582;51.506;11.948;2023-04-01T02:43:41;2.10;;;1.90;;
7080;SDS011;3582;51.506;11.948;2023-04-01T02:46:07;3.20;;;2.43;;
7080;SDS011;3582;51.506;11.948;2023-04-01T02:48:33;5.50;;;2.50;;
7080;SDS011;3582;51.506;11.948;2023-04-01T02:50:59;3.97;;;2.03;;
7080;SDS011;3582;51.506;11.948;2023-04-01T02:53:25;3.33;;;2.33;;
7080;SDS011;3582;51.506;11.948;2023-04-01T02:55:51;4.60;;;2.23;;
7080;SDS011;3582;51.506;11.948;2023-04-01T02:58:17;3.70;;;2.40;;
7080;SDS011;3582;51.506;11.948;2023-04-01T03:00:43;5.90;;;3.03;;
7080;SDS011;3582;51.506;11.948;2023-04-01T03:03:10;2.80;;;2.40;;
7080;SDS011;3582;51.506;11.948;2023-04-01T03:05:37;4.22;;;2.03;;
7080;SDS011;3582;51.506;11.948;2023-04-01T03:08:03;1.97;;;1.87;;
7080;SDS011;3582;51.506;11.948;2023-04-01T03:10:30;2.15;;;1.70;;
7080;SDS011;3582;51.506;11.948;2023-04-01T03:12:56;3.43;;;1.80;;
7080;SDS011;3582;51.506;11.948;2023-04-01T03:15:22;2.73;;;1.70;;
7080;SDS011;3582;51.506;11.948;2023-04-01T03:17:48;4.50;;;2.37;;
7080;SDS011;3582;51.506;11.948;2023-04-01T03:20:14;3.20;;;2.80;;
7080;SDS011;3582;51.506;11.948;2023-04-01T03:22:40;3.90;;;2.40;;
7080;SDS011;3582;51.506;11.948;2023-04-01T03:25:06;2.65;;;2.45;;
7080;SDS011;3582;51.506;11.948;2023-04-01T03:27:33;7.70;;;2.70;;
7080;SDS011;3582;51.506;11.948;2023-04-01T03:30:00;3.10;;;2.45;;
7080;SDS011;3582;51.506;11.948;2023-04-01T03:32:26;2.22;;;2.00;;
7080;SDS011;3582;51.506;11.948;2023-04-01T03:34:52;6.47;;;2.87;;
7080;SDS011;3582;51.506;11.948;2023-04-01T03:37:18;3.15;;;2.38;;
7080;SDS011;3582;51.506;11.948;2023-04-01T03:39:44;8.35;;;2.90;;
7080;SDS011;3582;51.506;11.948;2023-04-01T03:42:11;4.00;;;2.10;;
7080;SDS011;3582;51.506;11.948;2023-04-01T03:44:37;4.00;;;2.30;;
7080;SDS011;3582;51.506;11.948;2023-04-01T03:47:03;4.80;;;2.03;;
7080;SDS011;3582;51.506;11.948;2023-04-01T03:49:29;4.57;;;2.33;;
7080;SDS011;3582;51.506;11.948;2023-04-01T03:51:57;2.67;;;1.90;;
7080;SDS011;3582;51.506;11.948;2023-04-01T03:54:23;3.08;;;2.83;;
7080;SDS011;3582;51.506;11.948;2023-04-01T03:56:49;3.40;;;2.10;;
7080;SDS011;3582;51.506;11.948;2023-04-01T03:59:15;4.10;;;2.92;;
7080;SDS011;3582;51.506;11.948;2023-04-01T04:01:41;5.27;;;2.57;;
7080;SDS011;3582;51.506;11.948;2023-04-01T04:04:10;4.03;;;1.90;;
7080;SDS011;3582;51.506;11.948;2023-04-01T04:06:37;7.15;;;3.30;;
7080;SDS011;3582;51.506;11.948;2023-04-01T04:09:03;3.40;;;2.20;;
7080;SDS011;3582;51.506;11.948;2023-04-01T04:11:30;6.50;;;3.13;;
7080;SDS011;3582;51.506;11.948;2023-04-01T04:13:57;3.30;;;1.67;;
7080;SDS011;3582;51.506;11.948;2023-04-01T04:16:23;2.33;;;2.13;;
7080;SDS011;3582;51.506;11.948;2023-04-01T04:18:49;7.03;;;2.28;;
7080;SDS011;3582;51.506;11.948;2023-04-01T04:21:16;2.72;;;2.13;;
7080;SDS011;3582;51.506;11.948;2023-04-01T04:23:42;4.10;;;2.90;;
7080;SDS011;3582;51.506;11.948;2023-04-01T04:26:09;3.42;;;3.13;;
7080;SDS011;3582;51.506;11.948;2023-04-01T04:28:36;3.70;;;2.30;;
7080;SDS011;3582;51.506;11.948;2023-04-01T04:31:03;3.33;;;1.95;;
7080;SDS011;3582;51.506;11.948;2023-04-01T04:33:33;4.03;;;2.65;;
7080;SDS011;3582;51.506;11.948;2023-04-01T04:35:59;4.00;;;2.58;;
7080;SDS011;3582;51.506;11.948;2023-04-01T04:38:25;5.13;;;2.80;;
7080;SDS011;3582;51.506;11.948;2023-04-01T04:40:51;6.82;;;2.35;;
7080;SDS011;3582;51.506;11.948;2023-04-01T04:43:18;9.07;;;2.60;;
7080;SDS011;3582;51.506;11.948;2023-04-01T04:45:44;4.43;;;2.05;;
7080;SDS011;3582;51.506;11.948;2023-04-01T04:48:10;2.58;;;2.35;;
7080;SDS011;3582;51.506;11.948;2023-04-01T04:50:41;2.40;;;1.90;;
7080;SDS011;3582;51.506;11.948;2023-04-01T04:53:13;3.55;;;1.98;;
7080;SDS011;3582;51.506;11.948;2023-04-01T04:55:43;2.58;;;1.90;;
7080;SDS011;3582;51.506;11.948;2023-04-01T04:58:10;3.72;;;2.03;;
7080;SDS011;3582;51.506;11.948;2023-04-01T05:00:36;4.45;;;1.90;;
7080;SDS011;3582;51.506;11.948;2023-04-01T05:03:02;2.43;;;1.90;;
7080;SDS011;3582;51.506;11.948;2023-04-01T05:05:28;2.87;;;2.50;;
7080;SDS011;3582;51.506;11.948;2023-04-01T05:07:54;7.20;;;2.27;;
7080;SDS011;3582;51.506;11.948;2023-04-01T05:10:20;6.45;;;2.53;;
7080;SDS011;3582;51.506;11.948;2023-04-01T05:12:46;3.57;;;2.23;;
7080;SDS011;3582;51.506;11.948;2023-04-01T05:15:12;3.20;;;2.97;;
7080;SDS011;3582;51.506;11.948;2023-04-01T05:17:38;4.57;;;3.25;;
7080;SDS011;3582;51.506;11.948;2023-04-01T05:20:05;3.65;;;2.83;;
7080;SDS011;3582;51.506;11.948;2023-04-01T05:22:31;2.83;;;2.63;;
7080;SDS011;3582;51.506;11.948;2023-04-01T05:24:57;5.27;;;2.10;;
7080;SDS011;3582;51.506;11.948;2023-04-01T05:27:23;5.10;;;2.77;;
7080;SDS011;3582;51.506;11.948;2023-04-01T05:29:49;3.65;;;2.65;;
7080;SDS011;3582;51.506;11.948;2023-04-01T05:32:15;2.57;;;2.37;;
7080;SDS011;3582;51.506;11.948;2023-04-01T05:34:41;3.40;;;2.83;;
7080;SDS011;3582;51.506;11.948;2023-04-01T05:37:07;5.60;;;3.50;;
7080;SDS011;3582;51.506;11.948;2023-04-01T05:39:36;3.30;;;2.83;;
7080;SDS011;3582;51.506;11.948;2023-04-01T05:42:03;5.13;;;3.30;;
7080;SDS011;3582;51.506;11.948;2023-04-01T05:44:30;5.18;;;2.40;;
7080;SDS011;3582;51.506;11.948;2023-04-01T05:46:57;6.95;;;2.75;;
7080;SDS011;3582;51.506;11.948;2023-04-01T05:49:23;3.10;;;2.60;;
7080;SDS011;3582;51.506;11.948;2023-04-01T05:51:48;2.80;;;2.40;;
7080;SDS011;3582;51.506;11.948;2023-04-01T05:54:16;4.88;;;2.97;;
7080;SDS011;3582;51.506;11.948;2023-04-01T05:56:42;2.87;;;2.17;;
7080;SDS011;3582;51.506;11.948;2023-04-01T05:59:09;2.83;;;2.00;;
7080;SDS011;3582;51.506;11.948;2023-04-01T06:01:35;3.67;;;2.53;;
7080;SDS011;3582;51.506;11.948;2023-04-01T06:04:01;5.50;;;2.70;;
7080;SDS011;3582;51.506;11.948;2023-04-01T06:06:28;6.83;;;2.80;;
7080;SDS011;3582;51.506;11.948;2023-04-01T06:08:56;5.20;;;2.05;;
7080;SDS011;3582;51.506;11.948;2023-04-01T06:36:37;3.40;;;2.13;;
7080;SDS011;3582;51.506;11.948;2023-04-01T06:39:50;2.10;;;1.50;;
7080;SDS011;3582;51.506;11.948;2023-04-01T06:44:45;1.23;;;1.13;;
7080;SDS011;3582;51.506;11.948;2023-04-01T06:47:25;2.90;;;1.70;;
7080;SDS011;3582;51.506;11.948;2023-04-01T06:50:01;2.57;;;1.50;;
7080;SDS011;3582;51.506;11.948;2023-04-01T06:52:50;1.93;;;1.70;;
7080;SDS011;3582;51.506;11.948;2023-04-01T06:57:58;6.50;;;3.97;;
7080;SDS011;3582;51.506;11.948;2023-04-01T07:02:54;2.47;;;2.20;;
7080;SDS011;3582;51.506;11.948;2023-04-01T07:05:23;3.03;;;1.90;;
7080;SDS011;3582;51.506;11.948;2023-04-01T07:07:51;4.30;;;1.90;;
7080;SDS011;3582;51.506;11.948;2023-04-01T07:13:04;1.60;;;1.50;;
7080;SDS011;3582;51.506;11.948;2023-04-01T07:15:36;1.97;;;1.50;;
7080;SDS011;3582;51.506;11.948;2023-04-01T07:18:05;2.37;;;0.80;;
7080;SDS011;3582;51.506;11.948;2023-04-01T07:20:35;2.93;;;1.03;;
7080;SDS011;3582;51.506;11.948;2023-04-01T07:23:03;1.33;;;1.17;;
7080;SDS011;3582;51.506;11.948;2023-04-01T07:25:43;5.80;;;2.47;;
7080;SDS011;3582;51.506;11.948;2023-04-01T07:28:11;1.20;;;1.00;;
7080;SDS011;3582;51.506;11.948;2023-04-01T07:30:43;1.70;;;1.27;;
7080;SDS011;3582;51.506;11.948;2023-04-01T07:33:15;4.90;;;1.70;;
7080;SDS011;3582;51.506;11.948;2023-04-01T07:40:43;1.90;;;1.10;;
7080;SDS011;3582;51.506;11.948;2023-04-01T07:43:16;1.23;;;1.13;;
7080;SDS011;3582;51.506;11.948;2023-04-01T07:50:41;1.50;;;1.40;;
7080;SDS011;3582;51.506;11.948;2023-04-01T07:53:17;1.40;;;1.30;;
7080;SDS011;3582;51.506;11.948;2023-04-01T07:55:56;2.63;;;1.70;;
7080;SDS011;3582;51.506;11.948;2023-04-01T08:01:03;2.83;;;1.27;;
7080;SDS011;3582;51.506;11.948;2023-04-01T08:06:26;1.87;;;1.10;;
7080;SDS011;3582;51.506;11.948;2023-04-01T08:11:33;5.90;;;1.47;;
7080;SDS011;3582;51.506;11.948;2023-04-01T08:19:07;2.13;;;1.40;;
7080;SDS011;3582;51.506;11.948;2023-04-01T08:21:42;3.43;;;1.77;;
7080;SDS011;3582;51.506;11.948;2023-04-01T08:24:26;6.47;;;1.40;;
7080;SDS011;3582;51.506;11.948;2023-04-01T08:26:54;2.57;;;1.80;;
7080;SDS011;3582;51.506;11.948;2023-04-01T08:31:51;1.87;;;1.20;;
7080;SDS011;3582;51.506;11.948;2023-04-01T08:34:28;2.40;;;1.47;;
7080;SDS011;3582;51.506;11.948;2023-04-01T08:37:04;1.27;;;1.23;;
7080;SDS011;3582;51.506;11.948;2023-04-01T08:39:32;3.23;;;1.43;;
7080;SDS011;3582;51.506;11.948;2023-04-01T08:42:04;0.90;;;0.87;;
7080;SDS011;3582;51.506;11.948;2023-04-01T08:52:21;2.00;;;1.40;;
7080;SDS011;3582;51.506;11.948;2023-04-01T08:55:03;2.40;;;1.67;;
7080;SDS011;3582;51.506;11.948;2023-04-01T08:57:38;1.10;;;1.00;;
7080;SDS011;3582;51.506;11.948;2023-04-01T09:13:20;5.70;;;1.20;;
7080;SDS011;3582;51.506;11.948;2023-04-01T09:18:38;1.50;;;1.30;;
7080;SDS011;3582;51.506;11.948;2023-04-01T09:21:17;6.13;;;1.73;;
7080;SDS011;3582;51.506;11.948;2023-04-01T09:23:51;2.30;;;1.00;;
7080;SDS011;3582;51.506;11.948;2023-04-01T09:29:05;1.00;;;0.97;;
7080;SDS011;3582;51.506;11.948;2023-04-01T09:36:38;2.60;;;1.37;;
7080;SDS011;3582;51.506;11.948;2023-04-01T09:41:50;0.70;;;0.70;;
7080;SDS011;3582;51.506;11.948;2023-04-01T09:44:23;1.03;;;0.93;;
7080;SDS011;3582;51.506;11.948;2023-04-01T09:49:41;2.03;;;1.20;;
7080;SDS011;3582;51.506;11.948;2023-04-01T09:52:24;3.73;;;1.20;;
7080;SDS011;3582;51.506;11.948;2023-04-01T10:05:22;1.30;;;0.97;;
7080;SDS011;3582;51.506;11.948;2023-04-01T10:10:23;2.10;;;1.20;;
7080;SDS011;3582;51.506;11.948;2023-04-01T10:29:28;2.97;;;1.00;;
7080;SDS011;3582;51.506;11.948;2023-04-01T10:43:07;2.00;;;0.73;;
7080;SDS011;3582;51.506;11.948;2023-04-01T10:45:48;1.63;;;0.70;;
7080;SDS011;3582;51.506;11.948;2023-04-01T10:50:53;1.60;;;0.80;;
7080;SDS011;3582;51.506;11.948;2023-04-01T10:53:33;0.60;;;0.60;;
7080;SDS011;3582;51.506;11.948;2023-04-01T10:56:08;2.53;;;1.07;;
7080;SDS011;3582;51.506;11.948;2023-04-01T11:06:36;1.60;;;0.80;;
7080;SDS011;3582;51.506;11.948;2023-04-01T11:09:20;2.33;;;0.80;;
7080;SDS011;3582;51.506;11.948;2023-04-01T11:12:16;1.07;;;0.70;;
7080;SDS011;3582;51.506;11.948;2023-04-01T11:17:38;0.90;;;0.83;;
7080;SDS011;3582;51.506;11.948;2023-04-01T11:20:16;2.00;;;0.80;;
7080;SDS011;3582;51.506;11.948;2023-04-01T11:22:52;5.93;;;1.30;;
7080;SDS011;3582;51.506;11.948;2023-04-01T11:28:19;3.07;;;1.10;;
7080;SDS011;3582;51.506;11.948;2023-04-01T11:30:53;5.83;;;1.50;;
7080;SDS011;3582;51.506;11.948;2023-04-01T11:41:25;1.43;;;1.10;;
7080;SDS011;3582;51.506;11.948;2023-04-01T11:43:57;0.77;;;0.77;;
7080;SDS011;3582;51.506;11.948;2023-04-01T11:46:33;2.40;;;1.00;;
7080;SDS011;3582;51.506;11.948;2023-04-01T11:49:05;3.00;;;0.97;;
7080;SDS011;3582;51.506;11.948;2023-04-01T11:51:45;0.77;;;0.70;;
7080;SDS011;3582;51.506;11.948;2023-04-01T11:57:17;0.73;;;0.70;;
7080;SDS011;3582;51.506;11.948;2023-04-01T12:02:18;2.60;;;1.10;;
7080;SDS011;3582;51.506;11.948;2023-04-01T12:17:43;0.97;;;0.87;;
7080;SDS011;3582;51.506;11.948;2023-04-01T12:27:56;1.73;;;1.00;;
7080;SDS011;3582;51.506;11.948;2023-04-01T12:35:53;1.43;;;0.70;;
7080;SDS011;3582;51.506;11.948;2023-04-01T12:46:03;0.67;;;0.50;;
7080;SDS011;3582;51.506;11.948;2023-04-01T12:48:36;2.50;;;1.83;;
7080;SDS011;3582;51.506;11.948;2023-04-01T12:51:11;3.77;;;0.87;;
7080;SDS011;3582;51.506;11.948;2023-04-01T13:02:01;0.70;;;0.70;;
7080;SDS011;3582;51.506;11.948;2023-04-01T13:04:48;1.03;;;0.90;;
7080;SDS011;3582;51.506;11.948;2023-04-01T13:10:30;0.93;;;0.93;;
7080;SDS011;3582;51.506;11.948;2023-04-01T13:15:10;1.13;;;0.93;;
7080;SDS011;3582;51.506;11.948;2023-04-01T13:20:34;1.23;;;1.13;;
7080;SDS011;3582;51.506;11.948;2023-04-01T13:25:39;1.00;;;1.00;;
7080;SDS011;3582;51.506;11.948;2023-04-01T13:30:37;0.90;;;0.90;;
7080;SDS011;3582;51.506;11.948;2023-04-01T13:48:27;0.80;;;0.80;;
7080;SDS011;3582;51.506;11.948;2023-04-01T13:56:02;1.27;;;1.10;;
7080;SDS011;3582;51.506;11.948;2023-04-01T14:01:17;1.47;;;1.37;;
7080;SDS011;3582;51.506;11.948;2023-04-01T14:08:57;1.77;;;1.03;;
7080;SDS011;3582;51.506;11.948;2023-04-01T14:11:33;1.83;;;1.10;;
7080;SDS011;3582;51.506;11.948;2023-04-01T14:22:22;3.40;;;1.63;;
7080;SDS011;3582;51.506;11.948;2023-04-01T14:32:16;1.53;;;1.43;;
7080;SDS011;3582;51.506;11.948;2023-04-01T14:34:53;2.00;;;1.40;;
7080;SDS011;3582;51.506;11.948;2023-04-01T14:45:02;5.40;;;1.63;;
7080;SDS011;3582;51.506;11.948;2023-04-01T14:47:34;2.30;;;2.13;;
7080;SDS011;3582;51.506;11.948;2023-04-01T14:52:32;2.17;;;1.77;;
7080;SDS011;3582;51.506;11.948;2023-04-01T14:54:59;2.70;;;2.17;;
7080;SDS011;3582;51.506;11.948;2023-04-01T14:57:30;6.27;;;5.53;;
7080;SDS011;3582;51.506;11.948;2023-04-01T15:00:15;5.60;;;2.47;;
7080;SDS011;3582;51.506;11.948;2023-04-01T15:05:16;3.67;;;1.97;;
7080;SDS011;3582;51.506;11.948;2023-04-01T15:10:25;3.37;;;3.03;;
7080;SDS011;3582;51.506;11.948;2023-04-01T15:18:08;3.33;;;1.97;;
7080;SDS011;3582;51.506;11.948;2023-04-01T15:25:42;2.77;;;2.57;;
7080;SDS011;3582;51.506;11.948;2023-04-01T15:28:20;6.13;;;3.73;;
7080;SDS011;3582;51.506;11.948;2023-04-01T15:31:07;4.20;;;3.00;;
7080;SDS011;3582;51.506;11.948;2023-04-01T15:33:48;4.63;;;3.70;;
7080;SDS011;3582;51.506;11.948;2023-04-01T15:38:53;3.43;;;3.13;;
7080;SDS011;3582;51.506;11.948;2023-04-01T15:44:26;2.70;;;2.50;;
7080;SDS011;3582;51.506;11.948;2023-04-01T15:47:00;2.70;;;2.50;;
7080;SDS011;3582;51.506;11.948;2023-04-01T15:49:30;3.27;;;2.80;;
7080;SDS011;3582;51.506;11.948;2023-04-01T15:52:14;3.50;;;3.30;;
7080;SDS011;3582;51.506;11.948;2023-04-01T15:57:28;6.30;;;3.20;;
7080;SDS011;3582;51.506;11.948;2023-04-01T16:00:02;3.00;;;2.70;;
7080;SDS011;3582;51.506;11.948;2023-04-01T16:02:36;2.87;;;2.67;;
7080;SDS011;3582;51.506;11.948;2023-04-01T16:05:20;3.00;;;2.80;;
7080;SDS011;3582;51.506;11.948;2023-04-01T16:10:16;2.90;;;2.63;;
7080;SDS011;3582;51.506;11.948;2023-04-01T16:15:36;3.13;;;2.83;;
7080;SDS011;3582;51.506;11.948;2023-04-01T16:18:13;3.47;;;3.17;;
7080;SDS011;3582;51.506;11.948;2023-04-01T16:23:20;3.33;;;3.13;;
7080;SDS011;3582;51.506;11.948;2023-04-01T16:28:30;3.47;;;3.17;;
7080;SDS011;3582;51.506;11.948;2023-04-01T16:31:09;4.23;;;3.63;;
7080;SDS011;3582;51.506;11.948;2023-04-01T16:41:47;5.90;;;3.60;;
7080;SDS011;3582;51.506;11.948;2023-04-01T16:44:17;4.70;;;3.23;;
7080;SDS011;3582;51.506;11.948;2023-04-01T16:46:44;2.70;;;2.50;;
7080;SDS011;3582;51.506;11.948;2023-04-01T16:51:48;3.03;;;2.67;;
7080;SDS011;3582;51.506;11.948;2023-04-01T16:59:44;4.20;;;3.90;;
7080;SDS011;3582;51.506;11.948;2023-04-01T17:02:12;4.20;;;3.80;;
7080;SDS011;3582;51.506;11.948;2023-04-01T17:04:52;3.97;;;3.57;;
7080;SDS011;3582;51.506;11.948;2023-04-01T17:07:40;3.90;;;3.60;;
7080;SDS011;3582;51.506;11.948;2023-04-01T17:12:47;2.80;;;2.60;;
7080;SDS011;3582;51.506;11.948;2023-04-01T17:31:02;4.70;;;4.40;;
7080;SDS011;3582;51.506;11.948;2023-04-01T17:33:55;6.13;;;5.63;;
7080;SDS011;3582;51.506;11.948;2023-04-01T17:41:42;9.43;;;6.70;;
7080;SDS011;3582;51.506;11.948;2023-04-01T17:46:48;10.60;;;8.40;;
7080;SDS011;3582;51.506;11.948;2023-04-01T17:51:54;10.87;;;8.70;;
7080;SDS011;3582;51.506;11.948;2023-04-01T18:02:57;39.77;;;21.80;;
7080;SDS011;3582;51.506;11.948;2023-04-01T18:05:19;6.70;;;6.10;;
7080;SDS011;3582;51.506;11.948;2023-04-01T18:10:19;4.03;;;3.73;;
7080;SDS011;3582;51.506;11.948;2023-04-01T18:13:01;4.50;;;4.10;;
7080;SDS011;3582;51.506;11.948;2023-04-01T18:15:36;4.50;;;4.07;;
7080;SDS011;3582;51.506;11.948;2023-04-01T18:18:24;4.53;;;3.23;;
7080;SDS011;3582;51.506;11.948;2023-04-01T18:23:35;4.10;;;3.17;;
7080;SDS011;3582;51.506;11.948;2023-04-01T18:26:10;4.38;;;3.97;;
7080;SDS011;3582;51.506;11.948;2023-04-01T18:28:41;4.83;;;4.43;;
7080;SDS011;3582;51.506;11.948;2023-04-01T18:36:18;7.17;;;5.03;;
7080;SDS011;3582;51.506;11.948;2023-04-01T18:38:55;5.55;;;5.05;;
7080;SDS011;3582;51.506;11.948;2023-04-01T18:41:26;5.50;;;4.80;;
7080;SDS011;3582;51.506;11.948;2023-04-01T18:46:55;5.18;;;4.78;;
7080;SDS011;3582;51.506;11.948;2023-04-01T18:49:39;4.38;;;3.95;;
7080;SDS011;3582;51.506;11.948;2023-04-01T18:55:35;5.00;;;4.50;;
7080;SDS011;3582;51.506;11.948;2023-04-01T18:57:51;4.72;;;4.32;;
7080;SDS011;3582;51.506;11.948;2023-04-01T19:00:35;3.80;;;3.50;;
7080;SDS011;3582;51.506;11.948;2023-04-01T19:03:07;4.55;;;4.15;;
7080;SDS011;3582;51.506;11.948;2023-04-01T19:05:36;5.20;;;4.80;;
7080;SDS011;3582;51.506;11.948;2023-04-01T19:08:22;4.45;;;3.55;;
7080;SDS011;3582;51.506;11.948;2023-04-01T19:10:56;3.90;;;3.20;;
7080;SDS011;3582;51.506;11.948;2023-04-01T19:13:38;6.95;;;4.25;;
7080;SDS011;3582;51.506;11.948;2023-04-01T19:16:15;5.15;;;3.33;;
7080;SDS011;3582;51.506;11.948;2023-04-01T19:21:19;4.30;;;3.72;;
7080;SDS011;3582;51.506;11.948;2023-04-01T19:29:06;5.15;;;4.10;;
7080;SDS011;3582;51.506;11.948;2023-04-01T19:31:39;6.97;;;5.72;;
7080;SDS011;3582;51.506;11.948;2023-04-01T19:34:34;7.47;;;5.15;;
7080;SDS011;3582;51.506;11.948;2023-04-01T19:36:54;6.18;;;4.88;;
7080;SDS011;3582;51.506;11.948;2023-04-01T19:39:37;6.63;;;5.55;;
7080;SDS011;3582;51.506;11.948;2023-04-01T19:47:21;4.32;;;3.97;;
7080;SDS011;3582;51.506;11.948;2023-04-01T19:50:14;4.13;;;3.63;;
7080;SDS011;3582;51.506;11.948;2023-04-01T19:52:44;4.07;;;3.70;;
7080;SDS011;3582;51.506;11.948;2023-04-01T20:00:47;5.38;;;3.78;;
7080;SDS011;3582;51.506;11.948;2023-04-01T20:08:54;3.50;;;3.20;;
7080;SDS011;3582;51.506;11.948;2023-04-01T20:16:48;4.05;;;3.65;;
7080;SDS011;3582;51.506;11.948;2023-04-01T20:19:21;3.95;;;3.58;;
7080;SDS011;3582;51.506;11.948;2023-04-01T20:21:50;3.70;;;3.40;;
7080;SDS011;3582;51.506;11.948;2023-04-01T20:24:17;3.40;;;3.10;;
7080;SDS011;3582;51.506;11.948;2023-04-01T20:26:50;3.25;;;3.05;;
7080;SDS011;3582;51.506;11.948;2023-04-01T20:29:27;2.50;;;2.38;;
7080;SDS011;3582;51.506;11.948;2023-04-01T20:32:25;3.25;;;3.05;;
7080;SDS011;3582;51.506;11.948;2023-04-01T20:35:17;3.13;;;2.92;;
7080;SDS011;3582;51.506;11.948;2023-04-01T20:40:15;2.77;;;2.57;;
7080;SDS011;3582;51.506;11.948;2023-04-01T20:50:30;6.03;;;5.57;;
7080;SDS011;3582;51.506;11.948;2023-04-01T21:00:59;4.30;;;3.90;;
7080;SDS011;3582;51.506;11.948;2023-04-01T21:03:29;3.15;;;2.95;;
7080;SDS011;3582;51.506;11.948;2023-04-01T21:08:40;4.90;;;4.03;;
7080;SDS011;3582;51.506;11.948;2023-04-01T21:26:50;5.30;;;4.90;;
7080;SDS011;3582;51.506;11.948;2023-04-01T21:29:28;4.65;;;4.15;;
7080;SDS011;3582;51.506;11.948;2023-04-01T21:42:25;4.03;;;3.72;;
7080;SDS011;3582;51.506;11.948;2023-04-01T22:13:15;7.15;;;6.55;;
7080;SDS011;3582;51.506;11.948;2023-04-01T22:18:34;5.95;;;5.35;;
7080;SDS011;3582;51.506;11.948;2023-04-01T22:21:05;5.50;;;5.03;;
7080;SDS011;3582;51.506;11.948;2023-04-01T22:23:38;5.90;;;5.35;;
7080;SDS011;3582;51.506;11.948;2023-04-01T22:26:21;6.30;;;5.80;;
7080;SDS011;3582;51.506;11.948;2023-04-01T22:28:55;6.95;;;6.35;;
7080;SDS011;3582;51.506;11.948;2023-04-01T22:31:24;6.85;;;6.18;;
7080;SDS011;3582;51.506;11.948;2023-04-01T22:34:07;6.05;;;5.45;;
7080;SDS011;3582;51.506;11.948;2023-04-01T22:36:40;6.00;;;5.50;;
7080;SDS011;3582;51.506;11.948;2023-04-01T22:41:57;7.53;;;6.82;;
7080;SDS011;3582;51.506;11.948;2023-04-01T22:49:53;6.30;;;5.80;;
7080;SDS011;3582;51.506;11.948;2023-04-01T22:52:33;6.35;;;5.85;;
7080;SDS011;3582;51.506;11.948;2023-04-01T22:55:08;6.90;;;6.40;;
7080;SDS011;3582;51.506;11.948;2023-04-01T22:57:39;6.57;;;5.97;;
7080;SDS011;3582;51.506;11.948;2023-04-01T23:00:13;6.72;;;6.13;;
7080;SDS011;3582;51.506;11.948;2023-04-01T23:02:41;6.65;;;6.15;;
7080;SDS011;3582;51.506;11.948;2023-04-01T23:05:10;7.32;;;6.70;;
7080;SDS011;3582;51.506;11.948;2023-04-01T23:10:28;5.60;;;5.10;;
7080;SDS011;3582;51.506;11.948;2023-04-01T23:12:57;7.93;;;5.45;;
7080;SDS011;3582;51.506;11.948;2023-04-01T23:15:24;7.45;;;6.05;;
7080;SDS011;3582;51.506;11.948;2023-04-01T23:17:57;6.10;;;5.60;;
7080;SDS011;3582;51.506;11.948;2023-04-01T23:20:30;6.50;;;5.90;;
7080;SDS011;3582;51.506;11.948;2023-04-01T23:25:26;7.50;;;5.20;;
7080;SDS011;3582;51.506;11.948;2023-04-01T23:35:57;7.05;;;6.45;;
7080;SDS011;3582;51.506;11.948;2023-04-01T23:38:33;6.65;;;6.07;;
7080;SDS011;3582;51.506;11.948;2023-04-01T23:41:00;5.95;;;5.35;;
7080;SDS011;3582;51.506;11.948;2023-04-01T23:43:28;6.18;;;5.68;;
7080;SDS011;3582;51.506;11.948;2023-04-01T23:45:56;5.47;;;4.57;;
7080;SDS011;3582;51.506;11.948;2023-04-01T23:48:30;5.28;;;4.88;;
7080;SDS011;3582;51.506;11.948;2023-04-01T23:50:58;5.25;;;4.82;;
7080;SDS011;3582;51.506;11.948;2023-04-01T23:53:25;5.18;;;4.72;;
7080;SDS011;3582;51.506;11.948;2023-04-01T23:55:53;5.00;;;4.60;;
7080;SDS011;3582;51.506;11.948;2023-04-01T23:58:28;4.57;;;4.28;;
